Time;durP1;ratioP1;P1;durP2;ratioP2;P2;SDS_P1;SDS_P2;PMS_P1;PMS_P2;Temp;Humidity;BMP_temperature;BMP_pressure;BME280_temperature;BME280_humidity;BME280_pressure;Samples;Min_cycle;Max_cycle;Signal;HPM_P1;HPM_P2
2022/01/25 00:15:04;;;;;;;10.88;5.50;;;;;;;;;;143747;617;46018;-80
2022/01/25 00:24:46;;;;;;;12.35;7.00;;;;;;;;;;143751;615;45027;-80
2022/01/25 00:30:25;;;;;;;6.00;3.83;;;;;;;;;;143745;624;46020;-80
2022/01/25 00:32:53;;;;;;;8.70;4.12;;;;;;;;;;143744;606;46021;-80
2022/01/25 00:35:23;;;;;;;8.63;5.07;;;;;;;;;;143747;571;46019;-80
2022/01/25 00:37:50;;;;;;;13.15;6.70;;;;;;;;;;143745;584;46023;-80
2022/01/25 00:40:17;;;;;;;7.72;5.50;;;;;;;;;;143745;564;46020;-81
2022/01/25 00:42:46;;;;;;;16.85;8.48;;;;;;;;;;143744;603;46021;-80
2022/01/25 00:45:15;;;;;;;18.15;8.18;;;;;;;;;;143747;633;47010;-79
2022/01/25 00:47:47;;;;;;;12.82;6.80;;;;;;;;;;143745;565;46020;-81
2022/01/25 00:50:15;;;;;;;13.07;8.13;;;;;;;;;;143745;630;46910;-80
2022/01/25 00:55:32;;;;;;;9.27;4.70;;;;;;;;;;143749;569;46020;-80
2022/01/25 00:58:00;;;;;;;11.00;6.62;;;;;;;;;;143746;566;46022;-80
2022/01/25 01:00:29;;;;;;;17.10;6.85;;;;;;;;;;143748;567;46010;-80
2022/01/25 01:02:56;;;;;;;10.27;5.15;;;;;;;;;;143748;613;46018;-79
2022/01/25 01:05:24;;;;;;;13.10;6.00;;;;;;;;;;143748;577;46023;-81
2022/01/25 01:07:51;;;;;;;10.35;6.22;;;;;;;;;;143742;581;47023;-79
2022/01/25 01:10:21;;;;;;;10.63;6.22;;;;;;;;;;143742;601;46020;-80
2022/01/25 01:16:01;;;;;;;14.63;5.50;;;;;;;;;;143747;593;46012;-81
2022/01/25 01:29:50;;;;;;;14.45;6.15;;;;;;;;;;143748;621;46021;-80
2022/01/25 01:32:49;;;;;;;12.27;5.43;;;;;;;;;;143746;608;46020;-80
2022/01/25 01:35:33;;;;;;;7.95;5.60;;;;;;;;;;143744;587;46013;-80
2022/01/25 01:43:31;;;;;;;10.65;5.93;;;;;;;;;;143745;591;46021;-81
2022/01/25 01:49:00;;;;;;;8.20;4.32;;;;;;;;;;143748;639;46020;-79
2022/01/25 01:51:34;;;;;;;9.50;5.68;;;;;;;;;;143743;638;48038;-81
2022/01/25 01:54:15;;;;;;;13.85;6.68;;;;;;;;;;143745;584;46010;-80
2022/01/25 01:56:43;;;;;;;11.60;5.93;;;;;;;;;;143746;581;46020;-81
2022/01/25 01:59:16;;;;;;;13.25;6.28;;;;;;;;;;143748;643;46018;-80
2022/01/25 02:01:44;;;;;;;12.02;5.93;;;;;;;;;;143744;571;47022;-80
2022/01/25 02:04:14;;;;;;;7.15;5.25;;;;;;;;;;143745;594;46020;-81
2022/01/25 02:06:41;;;;;;;12.00;7.18;;;;;;;;;;143746;571;46021;-80
2022/01/25 02:09:09;;;;;;;30.15;13.20;;;;;;;;;;143750;619;46018;-80
2022/01/25 02:11:36;;;;;;;13.68;8.38;;;;;;;;;;143746;569;46013;-80
2022/01/25 02:14:08;;;;;;;18.87;9.68;;;;;;;;;;143745;717;46020;-80
2022/01/25 02:22:29;;;;;;;7.28;4.70;;;;;;;;;;143745;583;47023;-82
2022/01/25 02:24:56;;;;;;;11.68;5.18;;;;;;;;;;143744;592;46020;-81
2022/01/25 02:27:24;;;;;;;13.45;8.10;;;;;;;;;;143745;592;46021;-81
2022/01/25 02:29:50;;;;;;;12.02;6.70;;;;;;;;;;143748;569;46010;-80
2022/01/25 02:32:17;;;;;;;8.30;6.05;;;;;;;;;;143746;717;46022;-81
2022/01/25 02:34:44;;;;;;;6.47;5.37;;;;;;;;;;143744;665;46011;-81
2022/01/25 02:37:13;;;;;;;8.48;5.80;;;;;;;;;;143746;583;46012;-80
2022/01/25 02:39:43;;;;;;;10.88;6.37;;;;;;;;;;143747;596;46010;-80
2022/01/25 02:42:15;;;;;;;10.30;5.18;;;;;;;;;;143743;698;48021;-80
2022/01/25 02:44:43;;;;;;;9.70;6.12;;;;;;;;;;143745;595;46010;-81
2022/01/25 02:49:59;;;;;;;15.02;7.28;;;;;;;;;;143748;573;46011;-81
2022/01/25 02:52:27;;;;;;;11.85;6.68;;;;;;;;;;143748;683;46022;-82
2022/01/25 02:54:54;;;;;;;14.48;7.72;;;;;;;;;;143745;595;46048;-81
2022/01/25 02:57:21;;;;;;;11.02;6.10;;;;;;;;;;143748;570;46021;-81
2022/01/25 02:59:48;;;;;;;15.02;8.20;;;;;;;;;;143748;598;46010;-80
2022/01/25 03:02:16;;;;;;;11.00;5.90;;;;;;;;;;143747;582;46012;-81
2022/01/25 03:04:43;;;;;;;11.05;4.78;;;;;;;;;;143745;592;46010;-81
2022/01/25 03:07:10;;;;;;;9.20;5.70;;;;;;;;;;143735;567;46020;-82
2022/01/25 03:09:39;;;;;;;11.43;5.93;;;;;;;;;;143736;583;46020;-80
2022/01/25 03:12:09;;;;;;;10.93;6.32;;;;;;;;;;143732;603;47022;-80
2022/01/25 03:14:47;;;;;;;8.82;5.70;;;;;;;;;;143733;603;46010;-81
2022/01/25 03:17:23;;;;;;;9.20;5.28;;;;;;;;;;143734;576;46020;-81
2022/01/25 03:20:02;;;;;;;8.55;5.37;;;;;;;;;;143734;564;46010;-80
2022/01/25 03:22:59;;;;;;;8.57;5.57;;;;;;;;;;143732;686;46022;-81
2022/01/25 03:25:29;;;;;;;12.45;5.55;;;;;;;;;;143731;566;46010;-80
2022/01/25 03:27:57;;;;;;;7.03;5.20;;;;;;;;;;143733;565;46021;-80
2022/01/25 03:30:25;;;;;;;7.87;5.07;;;;;;;;;;143736;619;46018;-80
2022/01/25 03:32:52;;;;;;;10.38;6.80;;;;;;;;;;143732;569;47022;-81
2022/01/25 03:35:19;;;;;;;11.48;6.30;;;;;;;;;;143735;580;46043;-81
2022/01/25 03:37:45;;;;;;;9.18;6.57;;;;;;;;;;143733;576;46012;-80
2022/01/25 03:40:13;;;;;;;7.05;5.62;;;;;;;;;;143737;570;46010;-80
2022/01/25 03:42:40;;;;;;;12.10;5.43;;;;;;;;;;143732;575;47023;-79
2022/01/25 03:45:08;;;;;;;6.53;4.57;;;;;;;;;;143734;610;46010;-81
2022/01/25 03:50:19;;;;;;;8.43;5.65;;;;;;;;;;143737;582;46010;-80
2022/01/25 03:52:48;;;;;;;9.25;5.25;;;;;;;;;;143733;602;46022;-80
2022/01/25 03:55:15;;;;;;;9.10;5.55;;;;;;;;;;143736;581;46020;-80
2022/01/25 03:57:41;;;;;;;8.65;5.28;;;;;;;;;;143733;731;46021;-80
2022/01/25 04:00:10;;;;;;;10.07;6.22;;;;;;;;;;143735;590;46018;-81
2022/01/25 04:02:45;;;;;;;12.98;5.87;;;;;;;;;;143733;566;47022;-81
2022/01/25 04:05:20;;;;;;;13.45;5.62;;;;;;;;;;143735;649;46019;-80
2022/01/25 04:07:50;;;;;;;10.50;6.32;;;;;;;;;;143737;569;46020;-81
2022/01/25 04:10:18;;;;;;;9.95;6.03;;;;;;;;;;143735;659;46011;-81
2022/01/25 04:12:46;;;;;;;9.43;5.62;;;;;;;;;;143738;571;46023;-80
2022/01/25 04:15:13;;;;;;;8.27;6.15;;;;;;;;;;143735;579;46020;-81
2022/01/25 04:17:43;;;;;;;9.43;6.22;;;;;;;;;;143734;670;47020;-81
2022/01/25 04:20:19;;;;;;;17.08;6.22;;;;;;;;;;143736;578;46010;-81
2022/01/25 04:25:30;;;;;;;14.30;6.30;;;;;;;;;;143735;580;46021;-81
2022/01/25 04:27:57;;;;;;;12.48;6.05;;;;;;;;;;143738;564;46012;-80
2022/01/25 04:30:24;;;;;;;10.10;6.62;;;;;;;;;;143737;564;47018;-81
2022/01/25 04:33:16;;;;;;;11.35;6.85;;;;;;;;;;143735;569;46022;-82
2022/01/25 04:35:59;;;;;;;8.32;5.78;;;;;;;;;;143734;689;46022;-81
2022/01/25 04:49:29;;;;;;;7.78;5.22;;;;;;;;;;143733;571;46021;-82
2022/01/25 04:52:08;;;;;;;10.95;5.60;;;;;;;;;;143737;638;46010;-81
2022/01/25 04:55:05;;;;;;;14.15;8.40;;;;;;;;;;143735;566;46022;-81
2022/01/25 04:57:49;;;;;;;8.18;5.65;;;;;;;;;;143734;587;46997;-81
2022/01/25 05:00:18;;;;;;;;;;;;;;;;;;143736;981;46020;-82
2022/01/25 05:02:56;;;;;;;11.15;6.15;;;;;;;;;;143747;640;46020;-81
2022/01/25 05:05:34;;;;;;;9.30;6.10;;;;;;;;;;143735;566;47023;-82
2022/01/25 05:08:30;;;;;;;12.65;6.10;;;;;;;;;;143735;569;46044;-81
2022/01/25 05:13:52;;;;;;;9.98;6.10;;;;;;;;;;143739;602;46021;-81
2022/01/25 05:22:04;;;;;;;9.48;6.10;;;;;;;;;;143734;633;46021;-81
2022/01/25 05:22:29;;;;;;;9.88;6.35;;;;;;;;;;143736;666;46014;-81
2022/01/25 05:24:56;;;;;;;9.48;6.12;;;;;;;;;;143736;593;46019;-81
2022/01/25 05:27:27;;;;;;;10.25;6.35;;;;;;;;;;143733;570;46021;-81
2022/01/25 05:29:54;;;;;;;8.48;5.97;;;;;;;;;;143737;578;46020;-81
2022/01/25 05:32:27;;;;;;;11.02;6.57;;;;;;;;;;143735;620;46020;-81
2022/01/25 05:34:54;;;;;;;16.27;7.95;;;;;;;;;;143736;628;46013;-81
2022/01/25 05:37:20;;;;;;;12.32;7.72;;;;;;;;;;143735;608;46016;-81
2022/01/25 05:39:49;;;;;;;13.20;6.95;;;;;;;;;;143734;596;46012;-82
2022/01/25 05:42:25;;;;;;;11.38;6.75;;;;;;;;;;143736;647;46021;-81
2022/01/25 05:45:10;;;;;;;12.37;7.72;;;;;;;;;;143736;572;46012;-81
2022/01/25 05:47:38;;;;;;;12.00;7.90;;;;;;;;;;143734;704;46022;-81
2022/01/25 05:50:05;;;;;;;14.40;8.57;;;;;;;;;;143734;580;46012;-82
2022/01/25 05:52:32;;;;;;;13.25;8.45;;;;;;;;;;143734;585;46020;-81
2022/01/25 05:55:01;;;;;;;12.32;8.10;;;;;;;;;;143736;670;46013;-81
2022/01/25 05:57:31;;;;;;;19.83;7.15;;;;;;;;;;143733;588;47023;-81
2022/01/25 05:59:58;;;;;;;10.88;6.95;;;;;;;;;;143738;574;46020;-81
2022/01/25 06:02:27;;;;;;;10.35;7.85;;;;;;;;;;143735;578;46020;-81
2022/01/25 06:04:57;;;;;;;13.18;7.00;;;;;;;;;;143738;747;46018;-80
2022/01/25 06:07:26;;;;;;;9.40;6.72;;;;;;;;;;143735;573;47022;-81
2022/01/25 06:09:56;;;;;;;12.85;7.25;;;;;;;;;;143736;577;46012;-83
2022/01/25 06:12:23;;;;;;;12.25;7.60;;;;;;;;;;143733;564;48020;-81
2022/01/25 06:14:50;;;;;;;9.15;6.45;;;;;;;;;;143737;575;46044;-80
2022/01/25 06:17:17;;;;;;;13.38;8.38;;;;;;;;;;143731;586;47014;-81
2022/01/25 06:19:49;;;;;;;14.60;7.80;;;;;;;;;;143736;659;46012;-81
2022/01/25 06:22:16;;;;;;;11.23;6.27;;;;;;;;;;143737;674;46014;-79
2022/01/25 06:24:44;;;;;;;11.40;7.80;;;;;;;;;;143738;594;46019;-80
2022/01/25 06:27:11;;;;;;;16.00;6.55;;;;;;;;;;143737;576;46014;-80
2022/01/25 06:29:41;;;;;;;13.85;8.20;;;;;;;;;;143731;668;46012;-81
2022/01/25 06:32:08;;;;;;;13.23;8.68;;;;;;;;;;143737;600;46020;-82
2022/01/25 06:34:35;;;;;;;21.92;12.70;;;;;;;;;;143737;682;46012;-80
2022/01/25 06:37:15;;;;;;;19.60;9.82;;;;;;;;;;143734;576;46020;-81
2022/01/25 06:39:42;;;;;;;13.27;9.20;;;;;;;;;;143734;594;46012;-80
2022/01/25 06:42:09;;;;;;;21.02;10.90;;;;;;;;;;143735;585;46021;-79
2022/01/25 06:44:37;;;;;;;11.80;8.52;;;;;;;;;;143738;589;46018;-79
2022/01/25 06:47:04;;;;;;;13.43;8.15;;;;;;;;;;143735;604;46021;-82
2022/01/25 06:49:31;;;;;;;10.35;7.62;;;;;;;;;;143736;598;46012;-81
2022/01/25 06:51:59;;;;;;;10.48;7.00;;;;;;;;;;143736;592;46020;-81
2022/01/25 06:54:56;;;;;;;10.20;6.87;;;;;;;;;;143736;573;46013;-82
2022/01/25 06:57:23;;;;;;;10.65;7.85;;;;;;;;;;143734;682;46023;-80
2022/01/25 06:59:59;;;;;;;13.07;8.00;;;;;;;;;;143734;584;47012;-81
2022/01/25 07:02:26;;;;;;;10.20;6.20;;;;;;;;;;143737;573;46021;-82
2022/01/25 07:04:55;;;;;;;9.20;6.65;;;;;;;;;;143738;553;46018;-81
2022/01/25 07:07:29;;;;;;;21.42;6.87;;;;;;;;;;143737;581;46020;-80
2022/01/25 07:10:00;;;;;;;12.63;7.37;;;;;;;;;;143733;564;46013;-79
2022/01/25 07:12:27;;;;;;;6.97;4.93;;;;;;;;;;143734;654;46021;-80
2022/01/25 07:15:03;;;;;;;11.32;6.35;;;;;;;;;;143737;716;46020;-81
2022/01/25 07:17:50;;;;;;;11.98;6.10;;;;;;;;;;143732;572;47022;-80
2022/01/25 07:20:19;;;;;;;12.55;6.32;;;;;;;;;;143735;564;46020;-81
2022/01/25 07:22:52;;;;;;;11.00;7.00;;;;;;;;;;143736;569;46020;-81
2022/01/25 07:25:27;;;;;;;11.07;6.55;;;;;;;;;;143738;586;46021;-81
2022/01/25 07:27:57;;;;;;;10.07;7.07;;;;;;;;;;143735;647;46023;-81
2022/01/25 07:30:29;;;;;;;13.90;7.60;;;;;;;;;;143739;646;46012;-81
2022/01/25 07:32:57;;;;;;;16.33;8.63;;;;;;;;;;143737;583;46021;-80
2022/01/25 07:35:26;;;;;;;12.93;7.93;;;;;;;;;;143737;599;46020;-81
2022/01/25 07:37:56;;;;;;;9.90;6.50;;;;;;;;;;143734;595;46014;-81
2022/01/25 07:40:25;;;;;;;15.43;8.38;;;;;;;;;;143735;612;46013;-80
2022/01/25 07:42:59;;;;;;;8.35;5.62;;;;;;;;;;143736;565;46020;-81
2022/01/25 07:46:03;;;;;;;10.05;6.45;;;;;;;;;;143738;701;46012;-81
2022/01/25 07:48:59;;;;;;;10.55;5.95;;;;;;;;;;143735;569;46014;-82
2022/01/25 07:51:42;;;;;;;10.68;7.28;;;;;;;;;;143735;585;46012;-80
2022/01/25 07:54:09;;;;;;;10.43;6.55;;;;;;;;;;143738;638;46020;-80
2022/01/25 07:56:37;;;;;;;10.68;6.55;;;;;;;;;;143736;686;46018;-81
2022/01/25 07:59:03;;;;;;;10.98;6.12;;;;;;;;;;143737;710;45022;-81
2022/01/25 08:01:36;;;;;;;17.08;7.50;;;;;;;;;;143735;588;46012;-80
2022/01/25 08:07:03;;;;;;;15.48;7.47;;;;;;;;;;143736;569;46020;-81
2022/01/25 08:09:38;;;;;;;11.07;6.78;;;;;;;;;;143735;594;46015;-81
2022/01/25 08:12:11;;;;;;;19.33;10.68;;;;;;;;;;143737;713;45917;-80
2022/01/25 08:14:45;;;;;;;9.80;6.67;;;;;;;;;;143737;656;46014;-81
2022/01/25 08:17:17;;;;;;;10.65;6.62;;;;;;;;;;143738;645;46020;-79
2022/01/25 08:20:01;;;;;;;13.10;7.93;;;;;;;;;;143736;570;46023;-80
2022/01/25 08:22:35;;;;;;;11.25;7.90;;;;;;;;;;143736;619;46020;-81
2022/01/25 08:25:12;;;;;;;10.10;6.82;;;;;;;;;;143735;577;46049;-81
2022/01/25 08:27:39;;;;;;;11.40;6.82;;;;;;;;;;143739;634;46018;-81
2022/01/25 08:30:18;;;;;;;12.23;7.62;;;;;;;;;;143732;583;47022;-81
2022/01/25 08:32:48;;;;;;;9.90;7.30;;;;;;;;;;143734;750;46013;-80
2022/01/25 08:35:30;;;;;;;13.05;6.70;;;;;;;;;;143737;587;46014;-80
2022/01/25 08:37:57;;;;;;;10.82;7.03;;;;;;;;;;143737;569;46012;-81
2022/01/25 08:40:29;;;;;;;10.45;7.18;;;;;;;;;;143735;591;46015;-81
2022/01/25 08:43:20;;;;;;;11.70;6.97;;;;;;;;;;143733;569;46012;-80
2022/01/25 08:45:51;;;;;;;8.48;6.55;;;;;;;;;;143737;564;46014;-82
2022/01/25 08:48:26;;;;;;;7.55;4.97;;;;;;;;;;143738;695;46018;-81
2022/01/25 08:50:53;;;;;;;15.98;8.00;;;;;;;;;;143732;566;46014;-81
2022/01/25 08:53:20;;;;;;;12.73;6.78;;;;;;;;;;143734;589;46012;-79
2022/01/25 08:56:02;;;;;;;13.20;7.68;;;;;;;;;;143737;724;46014;-80
2022/01/25 08:58:34;;;;;;;8.85;5.65;;;;;;;;;;143738;585;46020;-80
2022/01/25 09:01:07;;;;;;;10.77;6.85;;;;;;;;;;143736;605;46014;-81
2022/01/25 09:03:36;;;;;;;11.68;6.68;;;;;;;;;;143733;628;46021;-80
2022/01/25 09:06:12;;;;;;;9.63;6.32;;;;;;;;;;143734;578;46020;-80
2022/01/25 09:08:55;;;;;;;;;;;;;;;;;;;;;
2022/01/25 09:11:23;;;;;;;10.90;7.15;;;;;;;;;;143733;685;46014;-81
2022/01/25 09:13:51;;;;;;;9.55;6.43;;;;;;;;;;143731;666;46012;-81
2022/01/25 09:16:23;;;;;;;12.60;7.15;;;;;;;;;;143732;654;46020;-81
2022/01/25 09:18:57;;;;;;;10.40;6.90;;;;;;;;;;143736;569;46018;-81
2022/01/25 09:21:35;;;;;;;9.55;6.07;;;;;;;;;;143733;571;46042;-80
2022/01/25 09:24:02;;;;;;;18.02;9.48;;;;;;;;;;143731;601;46012;-80
2022/01/25 09:26:30;;;;;;;18.58;8.25;;;;;;;;;;143734;564;46021;-80
2022/01/25 09:28:58;;;;;;;18.35;10.02;;;;;;;;;;143734;692;46020;-80
2022/01/25 09:31:27;;;;;;;10.90;7.65;;;;;;;;;;143731;652;47022;-80
2022/01/25 09:33:54;;;;;;;13.30;6.95;;;;;;;;;;143732;679;46012;-80
2022/01/25 09:36:24;;;;;;;13.68;4.95;;;;;;;;;;143734;690;47020;-80
2022/01/25 09:38:53;;;;;;;11.07;6.62;;;;;;;;;;143735;583;46019;-80
2022/01/25 09:41:20;;;;;;;14.32;8.10;;;;;;;;;;143732;591;47021;-81
2022/01/25 09:43:47;;;;;;;18.58;8.27;;;;;;;;;;143735;618;46012;-81
2022/01/25 09:46:16;;;;;;;10.85;6.87;;;;;;;;;;143736;592;45031;-81
2022/01/25 09:48:44;;;;;;;16.25;8.70;;;;;;;;;;143735;716;46012;-79
2022/01/25 09:51:11;;;;;;;16.12;7.53;;;;;;;;;;143731;597;47022;-80
2022/01/25 09:53:39;;;;;;;8.13;6.68;;;;;;;;;;143734;608;46021;-79
2022/01/25 09:56:08;;;;;;;12.52;7.37;;;;;;;;;;143735;598;46020;-80
2022/01/25 09:58:36;;;;;;;11.88;8.05;;;;;;;;;;143734;576;46012;-82
2022/01/25 10:01:05;;;;;;;11.95;7.57;;;;;;;;;;143732;588;46022;-82
2022/01/25 10:03:37;;;;;;;14.10;7.70;;;;;;;;;;143733;577;46012;-80
2022/01/25 10:06:05;;;;;;;18.48;9.77;;;;;;;;;;143732;654;47022;-81
2022/01/25 10:08:37;;;;;;;10.80;8.43;;;;;;;;;;143734;576;46014;-79
2022/01/25 10:11:09;;;;;;;9.88;6.18;;;;;;;;;;143732;586;46014;-80
2022/01/25 10:13:54;;;;;;;10.10;6.97;;;;;;;;;;143733;566;46012;-80
2022/01/25 10:16:38;;;;;;;6.45;4.18;;;;;;;;;;143735;574;45035;-79
2022/01/25 10:19:12;;;;;;;9.55;6.37;;;;;;;;;;143736;584;46018;-81
2022/01/25 10:21:41;;;;;;;11.57;5.32;;;;;;;;;;143733;660;46022;-80
2022/01/25 10:24:13;;;;;;;9.98;7.30;;;;;;;;;;143731;631;46013;-80
2022/01/25 10:26:49;;;;;;;13.70;7.00;;;;;;;;;;143735;566;46018;-80
2022/01/25 10:29:23;;;;;;;12.73;8.45;;;;;;;;;;143737;590;46020;-81
2022/01/25 10:32:11;;;;;;;13.13;7.18;;;;;;;;;;143732;617;46022;-81
2022/01/25 10:34:49;;;;;;;10.32;6.62;;;;;;;;;;143734;577;46012;-82
2022/01/25 10:37:41;;;;;;;12.05;8.02;;;;;;;;;;143737;587;45020;-83
2022/01/25 10:40:14;;;;;;;14.80;8.20;;;;;;;;;;143739;576;45048;-82
2022/01/25 10:42:42;;;;;;;11.82;7.50;;;;;;;;;;143736;566;45022;-82
2022/01/25 10:45:10;;;;;;;12.25;7.35;;;;;;;;;;143732;639;46020;-80
2022/01/25 10:48:03;;;;;;;16.92;8.48;;;;;;;;;;143734;565;46021;-81
2022/01/25 10:50:34;;;;;;;13.43;8.63;;;;;;;;;;143734;595;46020;-82
2022/01/25 10:53:11;;;;;;;9.57;7.45;;;;;;;;;;143732;592;46015;-81
2022/01/25 10:55:43;;;;;;;14.52;7.53;;;;;;;;;;143732;588;46021;-81
2022/01/25 10:58:10;;;;;;;11.02;7.40;;;;;;;;;;143734;574;46014;-81
2022/01/25 11:00:45;;;;;;;16.08;9.45;;;;;;;;;;143737;582;46020;-82
2022/01/25 11:03:35;;;;;;;12.25;8.40;;;;;;;;;;143735;596;46015;-81
2022/01/25 11:06:13;;;;;;;10.88;7.00;;;;;;;;;;143732;571;46020;-81
2022/01/25 11:08:44;;;;;;;11.38;7.05;;;;;;;;;;143732;569;47021;-79
2022/01/25 11:11:25;;;;;;;6.80;4.62;;;;;;;;;;143736;571;46047;-81
2022/01/25 11:13:54;;;;;;;13.70;8.80;;;;;;;;;;143732;603;46913;-81
2022/01/25 11:16:21;;;;;;;14.27;8.57;;;;;;;;;;143732;579;46013;-82
2022/01/25 11:18:47;;;;;;;17.55;6.68;;;;;;;;;;143736;576;46020;-81
2022/01/25 11:21:14;;;;;;;11.95;6.57;;;;;;;;;;143734;582;46018;-79
2022/01/25 11:23:42;;;;;;;16.95;9.23;;;;;;;;;;143733;583;46022;-80
2022/01/25 11:26:11;;;;;;;23.33;10.05;;;;;;;;;;143731;581;46917;-80
2022/01/25 11:28:40;;;;;;;14.95;8.30;;;;;;;;;;143734;584;46023;-80
2022/01/25 11:31:19;;;;;;;10.52;8.07;;;;;;;;;;143735;631;46013;-80
2022/01/25 11:33:47;;;;;;;16.12;8.57;;;;;;;;;;143733;689;46020;-80
2022/01/25 11:36:15;;;;;;;10.93;6.80;;;;;;;;;;143733;575;46012;-79
2022/01/25 11:38:47;;;;;;;10.57;7.55;;;;;;;;;;143735;594;46020;-81
2022/01/25 11:41:16;;;;;;;15.70;8.38;;;;;;;;;;143735;588;46012;-80
2022/01/25 11:43:48;;;;;;;14.13;7.60;;;;;;;;;;143731;583;47022;-81
2022/01/25 11:46:21;;;;;;;12.32;7.45;;;;;;;;;;143734;623;46021;-80
2022/01/25 11:48:49;;;;;;;14.63;7.72;;;;;;;;;;143732;606;46021;-80
2022/01/25 11:51:18;;;;;;;10.20;7.75;;;;;;;;;;143734;592;46012;-79
2022/01/25 11:53:48;;;;;;;18.75;9.43;;;;;;;;;;143735;569;46022;-81
2022/01/25 11:56:15;;;;;;;11.63;7.95;;;;;;;;;;143734;611;45917;-81
2022/01/25 11:59:02;;;;;;;10.63;7.35;;;;;;;;;;143734;620;46020;-81
2022/01/25 12:01:35;;;;;;;10.63;6.43;;;;;;;;;;143734;592;46014;-80
2022/01/25 12:04:07;;;;;;;9.77;6.80;;;;;;;;;;143734;577;47023;-81
2022/01/25 12:06:44;;;;;;;16.05;8.35;;;;;;;;;;143733;575;46012;-80
2022/01/25 12:09:42;;;;;;;15.13;8.52;;;;;;;;;;143733;581;46021;-81
2022/01/25 12:12:13;;;;;;;12.75;7.10;;;;;;;;;;143732;587;46020;-79
2022/01/25 12:14:54;;;;;;;11.82;6.55;;;;;;;;;;143732;583;46014;-80
2022/01/25 12:17:25;;;;;;;14.35;7.37;;;;;;;;;;143732;629;46020;-80
2022/01/25 12:20:17;;;;;;;17.58;9.07;;;;;;;;;;143735;582;46014;-80
2022/01/25 12:22:47;;;;;;;14.27;9.57;;;;;;;;;;143736;619;46045;-81
2022/01/25 12:25:34;;;;;;;14.80;8.40;;;;;;;;;;143732;610;46023;-80
2022/01/25 12:28:10;;;;;;;14.23;8.88;;;;;;;;;;143735;570;46020;-80
2022/01/25 12:30:43;;;;;;;16.30;7.40;;;;;;;;;;143733;602;46020;-80
2022/01/25 12:33:29;;;;;;;14.23;9.93;;;;;;;;;;143736;606;46049;-80
2022/01/25 12:36:07;;;;;;;24.23;11.23;;;;;;;;;;143732;585;46022;-80
2022/01/25 12:38:52;;;;;;;13.40;7.72;;;;;;;;;;143732;591;46013;-81
2022/01/25 12:41:24;;;;;;;12.98;8.65;;;;;;;;;;143735;575;46020;-81
2022/01/25 12:44:15;;;;;;;8.98;6.00;;;;;;;;;;143733;571;46012;-80
2022/01/25 12:46:43;;;;;;;12.50;7.95;;;;;;;;;;143735;607;46014;-82
2022/01/25 12:49:14;;;;;;;18.42;9.63;;;;;;;;;;143732;564;46012;-79
2022/01/25 12:51:46;;;;;;;11.20;6.87;;;;;;;;;;143733;597;46020;-80
2022/01/25 12:54:17;;;;;;;16.40;9.77;;;;;;;;;;143737;680;46021;-80
2022/01/25 12:56:48;;;;;;;10.15;7.43;;;;;;;;;;143732;574;46022;-81
2022/01/25 12:59:20;;;;;;;13.45;9.68;;;;;;;;;;143734;567;46020;-81
2022/01/25 13:01:48;;;;;;;13.00;8.32;;;;;;;;;;143732;582;46015;-80
2022/01/25 13:04:16;;;;;;;13.25;8.73;;;;;;;;;;143736;595;46012;-81
2022/01/25 13:06:48;;;;;;;16.70;10.45;;;;;;;;;;143731;567;46022;-81
2022/01/25 13:09:24;;;;;;;22.62;13.85;;;;;;;;;;143732;564;46012;-80
2022/01/25 13:15:04;;;;;;;17.77;10.38;;;;;;;;;;143735;623;46012;-80
2022/01/25 13:17:33;;;;;;;18.05;10.27;;;;;;;;;;143733;724;46023;-81
2022/01/25 13:20:03;;;;;;;17.87;10.80;;;;;;;;;;143731;626;46020;-82
2022/01/25 13:22:39;;;;;;;14.48;8.73;;;;;;;;;;143733;624;46020;-79
2022/01/25 13:25:28;;;;;;;18.12;9.70;;;;;;;;;;143735;576;46021;-81
2022/01/25 13:27:59;;;;;;;14.95;9.35;;;;;;;;;;143736;602;45022;-80
2022/01/25 13:30:40;;;;;;;13.75;8.80;;;;;;;;;;143734;718;45021;-80
2022/01/25 13:33:28;;;;;;;16.37;9.05;;;;;;;;;;143736;564;46020;-82
2022/01/25 13:36:00;;;;;;;13.80;8.43;;;;;;;;;;143738;632;46018;-81
2022/01/25 13:38:49;;;;;;;14.02;8.10;;;;;;;;;;143736;717;45043;-82
2022/01/25 13:41:42;;;;;;;16.45;8.57;;;;;;;;;;143730;629;46020;-82
2022/01/25 13:47:11;;;;;;;21.95;13.32;;;;;;;;;;143733;654;46021;-80
2022/01/25 13:49:38;;;;;;;14.30;10.18;;;;;;;;;;143734;732;46000;-81
2022/01/25 13:52:06;;;;;;;17.85;11.12;;;;;;;;;;143731;685;46015;-80
2022/01/25 13:54:37;;;;;;;25.73;15.55;;;;;;;;;;143733;618;47021;-81
2022/01/25 13:57:13;;;;;;;17.98;11.12;;;;;;;;;;143735;585;46012;-80
2022/01/25 13:59:40;;;;;;;16.67;8.35;;;;;;;;;;143732;638;46017;-80
2022/01/25 14:02:11;;;;;;;14.73;8.95;;;;;;;;;;143732;572;46021;-81
2022/01/25 14:04:41;;;;;;;14.70;9.68;;;;;;;;;;143733;563;46020;-81
2022/01/25 14:07:10;;;;;;;31.55;16.17;;;;;;;;;;143734;704;46012;-81
2022/01/25 14:09:39;;;;;;;17.17;10.95;;;;;;;;;;143732;697;46023;-80
2022/01/25 14:23:47;;;;;;;10.75;7.25;;;;;;;;;;143736;570;46012;-81
2022/01/25 14:26:19;;;;;;;12.88;8.45;;;;;;;;;;143732;683;46020;-80
2022/01/25 14:28:55;;;;;;;18.00;11.30;;;;;;;;;;143735;569;46012;-81
2022/01/25 14:31:26;;;;;;;14.05;9.13;;;;;;;;;;143732;587;46035;-82
2022/01/25 14:34:10;;;;;;;21.45;11.85;;;;;;;;;;143735;693;45914;-82
2022/01/25 14:36:39;;;;;;;17.23;10.48;;;;;;;;;;143733;666;46015;-81
2022/01/25 14:39:07;;;;;;;16.40;9.20;;;;;;;;;;143735;565;46018;-81
2022/01/25 14:41:36;;;;;;;12.02;7.62;;;;;;;;;;143736;679;45022;-82
2022/01/25 14:44:09;;;;;;;11.82;8.65;;;;;;;;;;143731;609;46012;-80
2022/01/25 14:46:48;;;;;;;21.00;9.97;;;;;;;;;;143733;567;46021;-82
2022/01/25 14:49:29;;;;;;;13.05;8.93;;;;;;;;;;143735;582;46012;-81
2022/01/25 14:52:07;;;;;;;16.80;11.50;;;;;;;;;;143732;580;46022;-81
2022/01/25 14:54:49;;;;;;;23.50;13.20;;;;;;;;;;143734;581;46021;-80
2022/01/25 14:57:20;;;;;;;16.20;9.18;;;;;;;;;;143734;649;46020;-80
2022/01/25 15:00:02;;;;;;;;;;;;;;;;;;;;;
2022/01/25 15:02:30;;;;;;;14.82;7.65;;;;;;;;;;143733;653;46025;-82
2022/01/25 15:05:10;;;;;;;28.60;13.25;;;;;;;;;;143731;607;46012;-81
2022/01/25 15:07:46;;;;;;;20.27;13.02;;;;;;;;;;143735;623;46021;-81
2022/01/25 15:10:20;;;;;;;14.87;8.60;;;;;;;;;;143734;581;46018;-81
2022/01/25 15:12:50;;;;;;;23.12;13.85;;;;;;;;;;143734;602;45592;-80
2022/01/25 15:15:27;;;;;;;22.27;12.52;;;;;;;;;;143733;570;46021;-80
2022/01/25 15:17:55;;;;;;;15.80;10.15;;;;;;;;;;143733;582;46020;-80
2022/01/25 15:20:23;;;;;;;21.48;13.93;;;;;;;;;;143735;577;46020;-80
2022/01/25 15:22:50;;;;;;;32.33;15.63;;;;;;;;;;143732;579;47022;-80
2022/01/25 15:25:22;;;;;;;27.92;15.93;;;;;;;;;;143733;570;46012;-80
2022/01/25 15:27:59;;;;;;;26.33;17.02;;;;;;;;;;143736;678;46020;-81
2022/01/25 15:30:26;;;;;;;22.20;14.25;;;;;;;;;;143735;606;46021;-80
2022/01/25 15:32:56;;;;;;;22.95;14.68;;;;;;;;;;143735;590;46020;-80
2022/01/25 15:35:31;;;;;;;35.03;19.70;;;;;;;;;;143734;618;46020;-82
2022/01/25 15:38:00;;;;;;;47.53;27.75;;;;;;;;;;143736;578;46021;-81
2022/01/25 15:41:06;;;;;;;47.85;24.98;;;;;;;;;;143735;615;46012;-81
2022/01/25 15:43:56;;;;;;;47.72;28.45;;;;;;;;;;143733;721;46024;-80
2022/01/25 15:46:33;;;;;;;57.83;32.30;;;;;;;;;;143734;581;46012;-81
2022/01/25 15:49:06;;;;;;;37.47;22.05;;;;;;;;;;143735;628;46018;-82
2022/01/25 15:51:33;;;;;;;38.13;20.88;;;;;;;;;;143737;638;46012;-80
2022/01/25 15:54:05;;;;;;;34.42;19.73;;;;;;;;;;143734;697;46023;-80
2022/01/25 15:56:33;;;;;;;28.30;18.87;;;;;;;;;;143735;665;45036;-80
2022/01/25 15:59:00;;;;;;;44.53;26.20;;;;;;;;;;143730;699;46020;-80
2022/01/25 16:01:49;;;;;;;62.72;34.70;;;;;;;;;;143736;576;46037;-80
2022/01/25 16:04:16;;;;;;;72.40;39.75;;;;;;;;;;143736;585;45035;-81
2022/01/25 16:06:48;;;;;;;59.80;35.08;;;;;;;;;;143734;594;46012;-80
2022/01/25 16:09:17;;;;;;;62.22;37.70;;;;;;;;;;143735;661;45021;-80
2022/01/25 16:11:49;;;;;;;63.63;38.72;;;;;;;;;;143734;621;46018;-80
2022/01/25 16:14:18;;;;;;;66.45;38.85;;;;;;;;;;143736;638;46015;-82
2022/01/25 16:16:54;;;;;;;44.08;27.73;;;;;;;;;;143735;686;46012;-82
2022/01/25 16:19:22;;;;;;;40.25;29.45;;;;;;;;;;143737;573;46014;-80
2022/01/25 16:21:49;;;;;;;41.63;27.75;;;;;;;;;;143736;594;46013;-81
2022/01/25 16:24:18;;;;;;;47.70;27.42;;;;;;;;;;143733;637;46023;-80
2022/01/25 16:26:46;;;;;;;46.63;28.17;;;;;;;;;;143734;577;46012;-80
2022/01/25 16:29:16;;;;;;;43.55;29.90;;;;;;;;;;143736;573;46014;-80
2022/01/25 16:31:43;;;;;;;50.03;30.02;;;;;;;;;;143737;565;46012;-80
2022/01/25 16:34:12;;;;;;;46.40;29.37;;;;;;;;;;143733;679;47020;-81
2022/01/25 16:36:39;;;;;;;54.25;30.85;;;;;;;;;;143732;573;46013;-80
2022/01/25 16:39:09;;;;;;;44.70;27.90;;;;;;;;;;143737;691;46020;-80
2022/01/25 16:41:36;;;;;;;40.30;27.00;;;;;;;;;;143737;572;46021;-79
2022/01/25 16:44:03;;;;;;;43.83;27.05;;;;;;;;;;143736;585;46014;-79